LFKF/FSC METAR and TAF weather

Enter ICAO airport designator
Station Type Date Time Source
LFKF METAR 2021/07/28 20:00 UTC NOAA

LFKF 282000Z AUTO 04006KT CAVOK 25/22 Q1013 NOSIG


Station Type Date Time Source
LFKF Decoded METAR 2021/07/28 20:00 UTC NOAA

Figari, France (LFKF) 41-30N 009-06E 23M
Jul 28, 2021 - 04:00 PM EDT / 2021.07.28 2000 UTC
Wind: from the NE (040 degrees) at 7 MPH (6 KT):0
Visibility: greater than 7 mile(s):0
Temperature: 77 F (25 C)
Dew Point: 71 F (22 C)
Relative Humidity: 83%
Pressure (altimeter): 29.91 in. Hg (1013 hPa)
ob: LFKF 282000Z AUTO 04006KT CAVOK 25/22 Q1013 NOSIG
cycle: 20

Station Type Date Time Source
LFKF TAF 2021/07/28 15:57 UTC NOAA

TAF LFKF 281400Z 2815/2915 23006KT 9999 FEW033
BECMG 2817/2819 VRB03KT PROB40
TEMPO 2822/2907 3000 BR BKN006
BECMG 2908/2910 23010KT

Example: see airport list